sensor_id;sensor_type;location;lat;lon;timestamp;pressure;altitude;pressure_sealevel;temperature;humidity
50087;BME280;35967;50.718;7.050;2023-07-16T00:07:16;100220.34;;;21.26;66.96
50087;BME280;35967;50.718;7.050;2023-07-16T00:17:21;100227.44;;;20.88;67.62
50087;BME280;35967;50.718;7.050;2023-07-16T00:27:24;100233.25;;;20.68;68.19
50087;BME280;35967;50.718;7.050;2023-07-16T00:37:28;100241.97;;;20.55;68.95
50087;BME280;35967;50.718;7.050;2023-07-16T00:47:31;100233.06;;;20.58;68.24
50087;BME280;35967;50.718;7.050;2023-07-16T00:57:38;100240.28;;;20.54;68.48
50087;BME280;35967;50.718;7.050;2023-07-16T01:07:50;100252.28;;;20.32;69.33
50087;BME280;35967;50.718;7.050;2023-07-16T01:17:57;100259.63;;;20.14;69.96
50087;BME280;35967;50.718;7.050;2023-07-16T01:28:21;100272.88;;;19.98;70.34
50087;BME280;35967;50.718;7.050;2023-07-16T01:38:28;100282.72;;;20.08;69.88
50087;BME280;35967;50.718;7.050;2023-07-16T01:48:34;100295.34;;;19.88;69.90
50087;BME280;35967;50.718;7.050;2023-07-16T01:58:40;100304.84;;;19.89;69.47
50087;BME280;35967;50.718;7.050;2023-07-16T02:08:43;100311.63;;;19.79;69.38
50087;BME280;35967;50.718;7.050;2023-07-16T02:18:48;100321.63;;;19.72;68.80
50087;BME280;35967;50.718;7.050;2023-07-16T02:28:53;100335.69;;;19.57;69.22
50087;BME280;35967;50.718;7.050;2023-07-16T02:38:58;100344.84;;;19.49;68.76
50087;BME280;35967;50.718;7.050;2023-07-16T02:49:02;100366.16;;;19.56;68.21
50087;BME280;35967;50.718;7.050;2023-07-16T02:59:07;100361.78;;;19.29;68.64
50087;BME280;35967;50.718;7.050;2023-07-16T03:09:11;100366.31;;;19.13;69.29
50087;BME280;35967;50.718;7.050;2023-07-16T03:19:17;100386.25;;;18.99;69.69
50087;BME280;35967;50.718;7.050;2023-07-16T03:29:20;100401.91;;;18.99;69.46
50087;BME280;35967;50.718;7.050;2023-07-16T03:39:25;100407.94;;;18.85;69.97
50087;BME280;35967;50.718;7.050;2023-07-16T03:49:29;100408.41;;;18.63;71.21
50087;BME280;35967;50.718;7.050;2023-07-16T03:59:33;100422.19;;;18.80;70.48
50087;BME280;35967;50.718;7.050;2023-07-16T04:09:38;100429.38;;;18.62;69.83
50087;BME280;35967;50.718;7.050;2023-07-16T04:19:45;100438.13;;;18.60;70.64
50087;BME280;35967;50.718;7.050;2023-07-16T04:29:49;100462.06;;;18.82;69.07
50087;BME280;35967;50.718;7.050;2023-07-16T04:39:53;100475.66;;;18.87;69.19
50087;BME280;35967;50.718;7.050;2023-07-16T04:49:57;100474.59;;;19.05;68.79
50087;BME280;35967;50.718;7.050;2023-07-16T05:00:03;100490.78;;;18.96;67.89
50087;BME280;35967;50.718;7.050;2023-07-16T05:10:08;100498.13;;;19.47;67.37
50087;BME280;35967;50.718;7.050;2023-07-16T05:20:13;100509.13;;;19.38;66.17
50087;BME280;35967;50.718;7.050;2023-07-16T05:30:16;100521.25;;;19.53;65.33
50087;BME280;35967;50.718;7.050;2023-07-16T05:40:20;100530.03;;;19.80;61.74
50087;BME280;35967;50.718;7.050;2023-07-16T05:50:23;100534.25;;;19.97;58.25
50087;BME280;35967;50.718;7.050;2023-07-16T06:00:28;100538.09;;;20.18;57.92
50087;BME280;35967;50.718;7.050;2023-07-16T06:10:34;100534.72;;;20.57;55.11
50087;BME280;35967;50.718;7.050;2023-07-16T06:20:38;100557.75;;;21.05;53.56
50087;BME280;35967;50.718;7.050;2023-07-16T06:30:42;100555.94;;;20.92;53.24
50087;BME280;35967;50.718;7.050;2023-07-16T06:40:50;100567.28;;;21.06;53.26
50087;BME280;35967;50.718;7.050;2023-07-16T06:50:54;100564.88;;;21.28;50.49
50087;BME280;35967;50.718;7.050;2023-07-16T07:00:58;100556.69;;;21.59;48.95
50087;BME280;35967;50.718;7.050;2023-07-16T07:11:03;100569.00;;;22.07;47.10
50087;BME280;35967;50.718;7.050;2023-07-16T07:21:08;100556.41;;;21.88;45.74
50087;BME280;35967;50.718;7.050;2023-07-16T07:31:11;100571.97;;;22.02;44.55
50087;BME280;35967;50.718;7.050;2023-07-16T07:41:16;100566.19;;;21.60;44.40
50087;BME280;35967;50.718;7.050;2023-07-16T07:51:19;100569.22;;;22.04;42.18
50087;BME280;35967;50.718;7.050;2023-07-16T08:01:23;100564.56;;;22.45;41.69
50087;BME280;35967;50.718;7.050;2023-07-16T08:11:26;100563.44;;;22.60;41.43
50087;BME280;35967;50.718;7.050;2023-07-16T08:21:31;100576.81;;;22.80;40.13
50087;BME280;35967;50.718;7.050;2023-07-16T08:31:34;100576.16;;;23.12;39.68
50087;BME280;35967;50.718;7.050;2023-07-16T08:41:39;100589.16;;;22.91;39.80
50087;BME280;35967;50.718;7.050;2023-07-16T08:51:43;100588.66;;;22.85;39.34
50087;BME280;35967;50.718;7.050;2023-07-16T09:01:50;100597.16;;;23.00;38.83
50087;BME280;35967;50.718;7.050;2023-07-16T09:11:54;100600.38;;;23.51;38.53
50087;BME280;35967;50.718;7.050;2023-07-16T09:21:58;100606.28;;;23.87;37.36
50087;BME280;35967;50.718;7.050;2023-07-16T09:32:03;100593.56;;;24.26;36.79
50087;BME280;35967;50.718;7.050;2023-07-16T09:42:08;100593.41;;;24.39;36.22
50087;BME280;35967;50.718;7.050;2023-07-16T09:52:11;100594.09;;;25.16;35.97
50087;BME280;35967;50.718;7.050;2023-07-16T10:02:17;100595.78;;;25.48;33.63
50087;BME280;35967;50.718;7.050;2023-07-16T10:12:22;100591.28;;;25.70;34.14
50087;BME280;35967;50.718;7.050;2023-07-16T10:22:34;100605.94;;;25.53;33.67
50087;BME280;35967;50.718;7.050;2023-07-16T10:32:39;100604.34;;;25.72;32.59
50087;BME280;35967;50.718;7.050;2023-07-16T10:42:44;100587.34;;;26.74;31.26
50087;BME280;35967;50.718;7.050;2023-07-16T10:52:51;100608.91;;;26.69;30.76
50087;BME280;35967;50.718;7.050;2023-07-16T11:02:55;100606.31;;;27.17;30.39
50087;BME280;35967;50.718;7.050;2023-07-16T11:12:59;100597.69;;;27.15;30.12
50087;BME280;35967;50.718;7.050;2023-07-16T11:23:04;100598.59;;;26.66;31.51
50087;BME280;35967;50.718;7.050;2023-07-16T11:33:09;100621.31;;;27.92;29.25
50087;BME280;35967;50.718;7.050;2023-07-16T11:43:18;100626.00;;;26.36;31.78
50087;BME280;35967;50.718;7.050;2023-07-16T11:53:22;100628.97;;;27.95;29.31
50087;BME280;35967;50.718;7.050;2023-07-16T12:03:26;100620.00;;;26.73;30.69
50087;BME280;35967;50.718;7.050;2023-07-16T12:13:30;100630.16;;;28.46;29.58
50087;BME280;35967;50.718;7.050;2023-07-16T12:23:35;100620.41;;;28.11;28.78
50087;BME280;35967;50.718;7.050;2023-07-16T12:33:39;100611.53;;;26.99;30.33
50087;BME280;35967;50.718;7.050;2023-07-16T12:43:44;100617.22;;;27.04;29.76
50087;BME280;35967;50.718;7.050;2023-07-16T12:53:47;100613.34;;;26.88;32.10
50087;BME280;35967;50.718;7.050;2023-07-16T13:03:52;100617.91;;;27.06;30.01
50087;BME280;35967;50.718;7.050;2023-07-16T13:13:57;100623.00;;;27.93;28.50
50087;BME280;35967;50.718;7.050;2023-07-16T13:24:02;100619.56;;;27.07;29.83
50087;BME280;35967;50.718;7.050;2023-07-16T13:34:05;100626.56;;;26.88;29.71
50087;BME280;35967;50.718;7.050;2023-07-16T13:44:10;100653.38;;;26.44;30.33
50087;BME280;35967;50.718;7.050;2023-07-16T13:54:13;100639.91;;;26.57;31.20
50087;BME280;35967;50.718;7.050;2023-07-16T14:04:18;100641.06;;;26.04;32.53
50087;BME280;35967;50.718;7.050;2023-07-16T14:14:22;100637.50;;;26.25;31.18
50087;BME280;35967;50.718;7.050;2023-07-16T14:24:27;100634.06;;;25.83;32.50
50087;BME280;35967;50.718;7.050;2023-07-16T14:34:30;100637.59;;;26.04;31.18
50087;BME280;35967;50.718;7.050;2023-07-16T14:44:34;100636.59;;;26.05;32.44
50087;BME280;35967;50.718;7.050;2023-07-16T14:54:37;100638.19;;;26.17;30.92
50087;BME280;35967;50.718;7.050;2023-07-16T15:04:42;100630.50;;;26.04;32.06
50087;BME280;35967;50.718;7.050;2023-07-16T15:14:45;100616.00;;;25.79;33.08
50087;BME280;35967;50.718;7.050;2023-07-16T15:24:49;100613.13;;;25.51;33.30
50087;BME280;35967;50.718;7.050;2023-07-16T15:34:52;100616.63;;;25.51;33.48
50087;BME280;35967;50.718;7.050;2023-07-16T15:44:57;100620.56;;;25.67;33.45
50087;BME280;35967;50.718;7.050;2023-07-16T15:55:00;100610.81;;;25.36;33.58
50087;BME280;35967;50.718;7.050;2023-07-16T16:05:04;100614.38;;;25.26;35.28
50087;BME280;35967;50.718;7.050;2023-07-16T16:15:08;100621.56;;;25.24;33.90
50087;BME280;35967;50.718;7.050;2023-07-16T16:25:13;100605.72;;;25.14;34.12
50087;BME280;35967;50.718;7.050;2023-07-16T16:35:16;100602.13;;;25.15;31.89
50087;BME280;35967;50.718;7.050;2023-07-16T16:45:21;100597.84;;;24.93;32.79
50087;BME280;35967;50.718;7.050;2023-07-16T16:55:24;100612.81;;;24.71;33.13
50087;BME280;35967;50.718;7.050;2023-07-16T17:05:28;100602.38;;;24.37;33.64
50087;BME280;35967;50.718;7.050;2023-07-16T17:15:32;100601.72;;;24.23;33.51
50087;BME280;35967;50.718;7.050;2023-07-16T17:25:37;100613.44;;;24.19;33.62
50087;BME280;35967;50.718;7.050;2023-07-16T17:35:40;100617.38;;;24.14;34.69
50087;BME280;35967;50.718;7.050;2023-07-16T17:45:44;100631.47;;;24.24;34.80
50087;BME280;35967;50.718;7.050;2023-07-16T17:55:48;100634.94;;;24.24;34.12
50087;BME280;35967;50.718;7.050;2023-07-16T18:05:53;100629.34;;;24.18;35.70
50087;BME280;35967;50.718;7.050;2023-07-16T18:15:57;100629.00;;;24.11;35.40
50087;BME280;35967;50.718;7.050;2023-07-16T18:26:02;100635.25;;;23.99;35.91
50087;BME280;35967;50.718;7.050;2023-07-16T18:36:06;100642.41;;;23.97;36.21
50087;BME280;35967;50.718;7.050;2023-07-16T18:46:11;100646.81;;;23.73;36.36
50087;BME280;35967;50.718;7.050;2023-07-16T18:56:14;100654.22;;;23.68;37.47
50087;BME280;35967;50.718;7.050;2023-07-16T19:06:19;100652.63;;;23.31;38.00
50087;BME280;35967;50.718;7.050;2023-07-16T19:16:23;100665.03;;;23.18;38.20
50087;BME280;35967;50.718;7.050;2023-07-16T19:26:42;100676.19;;;23.09;37.98
50087;BME280;35967;50.718;7.050;2023-07-16T19:36:45;100695.78;;;22.80;38.37
50087;BME280;35967;50.718;7.050;2023-07-16T19:46:49;100706.25;;;22.56;39.04
50087;BME280;35967;50.718;7.050;2023-07-16T19:56:53;100712.81;;;22.37;39.24
50087;BME280;35967;50.718;7.050;2023-07-16T20:06:57;100717.97;;;22.26;39.81
50087;BME280;35967;50.718;7.050;2023-07-16T20:17:05;100726.69;;;22.27;39.65
50087;BME280;35967;50.718;7.050;2023-07-16T20:27:10;100725.78;;;22.15;40.13
50087;BME280;35967;50.718;7.050;2023-07-16T20:37:14;100727.66;;;21.87;40.13
50087;BME280;35967;50.718;7.050;2023-07-16T20:47:18;100728.22;;;21.66;40.53
50087;BME280;35967;50.718;7.050;2023-07-16T20:57:21;100730.69;;;21.55;40.78
50087;BME280;35967;50.718;7.050;2023-07-16T21:07:26;100727.50;;;21.37;41.00
50087;BME280;35967;50.718;7.050;2023-07-16T21:17:29;100724.66;;;21.40;40.93
50087;BME280;35967;50.718;7.050;2023-07-16T21:27:41;100717.22;;;21.21;40.96
50087;BME280;35967;50.718;7.050;2023-07-16T21:37:44;100713.88;;;20.91;41.82
50087;BME280;35967;50.718;7.050;2023-07-16T21:48:04;100722.06;;;20.87;41.25
50087;BME280;35967;50.718;7.050;2023-07-16T21:58:08;100717.84;;;20.84;41.86
50087;BME280;35967;50.718;7.050;2023-07-16T22:08:12;100717.91;;;20.55;42.52
50087;BME280;35967;50.718;7.050;2023-07-16T22:18:16;100720.97;;;20.47;42.44
50087;BME280;35967;50.718;7.050;2023-07-16T22:28:20;100724.56;;;20.46;42.83
50087;BME280;35967;50.718;7.050;2023-07-16T22:38:23;100722.16;;;20.29;43.91
50087;BME280;35967;50.718;7.050;2023-07-16T22:48:28;100719.16;;;20.35;43.79
50087;BME280;35967;50.718;7.050;2023-07-16T22:58:31;100712.75;;;20.26;44.00
50087;BME280;35967;50.718;7.050;2023-07-16T23:08:35;100709.38;;;20.24;43.32
50087;BME280;35967;50.718;7.050;2023-07-16T23:18:39;100716.66;;;20.05;44.16
50087;BME280;35967;50.718;7.050;2023-07-16T23:28:43;100718.06;;;20.10;44.30
50087;BME280;35967;50.718;7.050;2023-07-16T23:38:47;100725.63;;;20.15;43.86
50087;BME280;35967;50.718;7.050;2023-07-16T23:48:52;100734.59;;;20.11;44.47
50087;BME280;35967;50.718;7.050;2023-07-16T23:58:55;100730.38;;;20.08;45.20
